Time;durP1;ratioP1;P1;durP2;ratioP2;P2;SDS_P1;SDS_P2;PMS_P1;PMS_P2;Temp;Humidity;BMP_temperature;BMP_pressure;BME280_temperature;BME280_humidity;BME280_pressure;Samples;Min_cycle;Max_cycle;Signal;HPM_P1;HPM_P2
2021/07/03 00:02:19;;;;;;;5.37;2.10;;;;;;;27.23;52.06;100289.61;127759;1088;64104;-84
2021/07/03 00:04:58;;;;;;;3.40;2.20;;;;;;;27.22;51.96;100296.03;127712;1088;64073;-84
2021/07/03 00:07:48;;;;;;;4.80;2.13;;;;;;;27.23;51.88;100303.16;127694;1090;64750;-84
2021/07/03 00:10:48;;;;;;;3.03;2.00;;;;;;;27.22;51.98;100305.03;127266;1092;64133;-84
2021/07/03 00:13:17;;;;;;;3.60;2.10;;;;;;;27.22;52.09;100306.88;127252;1093;64025;-83
2021/07/03 00:16:21;;;;;;;2.90;1.90;;;;;;;27.22;51.99;100296.03;127153;1096;64170;-84
2021/07/03 00:19:11;;;;;;;3.20;2.00;;;;;;;27.22;52.04;100285.20;127154;1096;64160;-84
2021/07/03 00:21:41;;;;;;;3.30;2.10;;;;;;;27.22;52.04;100279.78;127145;1095;64166;-83
2021/07/03 00:24:42;;;;;;;3.20;2.00;;;;;;;27.22;51.87;100288.77;127155;1096;64535;-86
2021/07/03 00:27:28;;;;;;;3.27;1.83;;;;;;;27.21;51.98;100281.66;127210;1093;65861;-84
2021/07/03 00:30:17;;;;;;;4.43;2.20;;;;;;;27.21;52.39;100278.94;127284;1093;64226;-84
2021/07/03 00:33:04;;;;;;;3.27;2.30;;;;;;;27.21;52.08;100276.23;127660;1093;64150;-83
2021/07/03 00:36:11;;;;;;;3.30;2.07;;;;;;;27.21;52.04;100262.69;127665;1092;64117;-84
2021/07/03 00:39:17;;;;;;;2.97;1.83;;;;;;;27.22;51.92;100258.10;127647;1093;64162;-83
2021/07/03 00:42:06;;;;;;;3.63;2.08;;;;;;;27.21;52.08;100253.72;127696;1093;64160;-85
2021/07/03 00:44:45;;;;;;;2.77;1.80;;;;;;;27.21;52.14;100237.46;127691;1093;64357;-84
2021/07/03 00:47:23;;;;;;;3.10;1.90;;;;;;;27.21;52.08;100237.46;127685;1093;64438;-84
2021/07/03 00:50:09;;;;;;;;;;;;;;;;;;;;;
2021/07/03 00:52:52;;;;;;;2.70;1.90;;;;;;;27.21;51.98;100237.46;127916;1089;64566;-84
2021/07/03 00:55:30;;;;;;;3.23;2.07;;;;;;;27.20;51.91;100231.17;128379;1085;64211;-84
2021/07/03 00:58:17;;;;;;;;;;;;;;;;;;;;;
2021/07/03 01:00:56;;;;;;;4.17;1.90;;;;;;;27.20;51.95;100222.21;128393;1086;64131;-83
2021/07/03 01:03:32;;;;;;;3.43;2.20;;;;;;;27.20;52.02;100211.38;128354;1086;64301;-85
2021/07/03 01:06:37;;;;;;;;;;;;;;;;;;;;;
2021/07/03 01:09:12;;;;;;;3.43;1.90;;;;;;;27.19;51.90;100213.25;128398;1086;63904;-84
2021/07/03 01:11:48;;;;;;;3.57;1.93;;;;;;;27.19;51.88;100207.83;128382;1087;64171;-84
2021/07/03 01:14:28;;;;;;;3.20;2.10;;;;;;;27.20;51.94;100205.95;128388;1087;64169;-82
2021/07/03 01:17:19;;;;;;;3.63;1.73;;;;;;;27.19;51.95;100206.95;128423;1085;64026;-84
2021/07/03 01:20:32;;;;;;;3.07;2.17;;;;;;;27.19;52.19;100206.95;128380;1087;64106;-83
2021/07/03 01:23:09;;;;;;;3.45;1.80;;;;;;;27.19;52.03;100206.95;128411;1087;64105;-84
2021/07/03 01:25:46;;;;;;;3.40;1.88;;;;;;;27.18;52.32;100214.25;128364;1087;64261;-83
2021/07/03 01:28:23;;;;;;;2.77;1.77;;;;;;;27.20;52.14;100208.66;128404;1087;64361;-84
2021/07/03 01:31:10;;;;;;;2.93;1.77;;;;;;;27.19;52.18;100204.25;128404;1085;64186;-84
2021/07/03 01:33:47;;;;;;;;;;;;;;;;;;;;;
2021/07/03 01:36:38;;;;;;;2.63;1.87;;;;;;;27.19;52.21;100199.70;128375;1086;64208;-83
2021/07/03 01:39:31;;;;;;;3.53;1.98;;;;;;;27.19;52.08;100206.95;128406;1087;64142;-84
2021/07/03 01:42:21;;;;;;;;;;;;;;;;;;;;;
2021/07/03 01:45:05;;;;;;;3.67;2.00;;;;;;;27.17;52.24;100207.13;128371;1087;64198;-84
2021/07/03 01:50:52;;;;;;;2.50;1.70;;;;;;;27.18;52.25;100202.55;127919;1087;64226;-84
2021/07/03 01:53:53;;;;;;;3.60;1.83;;;;;;;27.18;52.24;100203.41;127936;1087;64157;-83
2021/07/03 01:56:25;;;;;;;3.33;1.97;;;;;;;27.18;52.11;100208.83;127912;1087;64138;-84
2021/07/03 01:59:03;;;;;;;3.87;1.83;;;;;;;27.17;52.24;100207.13;127914;1087;64304;-83
2021/07/03 02:01:41;;;;;;;;;;;;;;;;;;;;;
2021/07/03 02:04:16;;;;;;;2.67;1.73;;;;;;;27.17;52.31;100209.84;127919;1087;64632;-84
2021/07/03 02:07:03;;;;;;;3.00;1.90;;;;;;;27.17;52.29;100209.84;127924;1087;61665;-83
2021/07/03 02:09:32;;;;;;;2.47;1.73;;;;;;;27.17;52.21;100211.71;127880;1087;64287;-84
2021/07/03 02:12:08;;;;;;;2.73;1.70;;;;;;;27.17;52.45;100217.13;127921;1087;64323;-83
2021/07/03 02:14:53;;;;;;;3.73;2.10;;;;;;;27.16;52.00;100218.97;127882;1087;64099;-83
2021/07/03 02:17:40;;;;;;;2.50;1.80;;;;;;;27.15;52.26;100211.84;127929;1087;62954;-83
2021/07/03 02:20:34;;;;;;;3.00;1.90;;;;;;;27.16;52.15;100216.27;127906;1087;64123;-83
2021/07/03 02:23:35;;;;;;;;;;;;;;;;;;;;;
2021/07/03 02:26:25;;;;;;;4.23;2.00;;;;;;;27.16;52.28;100215.42;127912;1087;64370;-84
2021/07/03 02:29:08;;;;;;;3.07;1.93;;;;;;;27.15;52.38;100219.98;128019;1087;64600;-83
2021/07/03 02:31:56;;;;;;;;;;;;;;;;;;;;;
2021/07/03 02:34:52;;;;;;;4.30;2.00;;;;;;;27.15;52.31;100230.81;128386;1085;64141;-83
2021/07/03 02:37:46;;;;;;;3.20;1.73;;;;;;;27.15;52.33;100224.55;128417;1087;63978;-84
2021/07/03 02:40:17;;;;;;;3.43;2.00;;;;;;;27.16;52.35;100226.27;128391;1086;65315;-84
2021/07/03 02:43:03;;;;;;;3.03;1.80;;;;;;;27.15;52.34;100227.27;128326;1087;64281;-84
2021/07/03 02:46:07;;;;;;;3.27;1.97;;;;;;;27.16;52.20;100228.97;128393;1087;64173;-83
2021/07/03 02:48:56;;;;;;;3.00;1.77;;;;;;;27.15;52.39;100224.55;128363;1085;64147;-84
2021/07/03 02:51:36;;;;;;;2.83;1.90;;;;;;;27.15;52.48;100224.55;128330;1087;64147;-84
2021/07/03 02:54:22;;;;;;;;;;;;;;;;;;;;;
2021/07/03 02:57:23;;;;;;;2.27;1.47;;;;;;;27.15;52.37;100227.27;128385;1087;64214;-83
2021/07/03 03:00:02;;;;;;;2.83;1.80;;;;;;;27.15;52.21;100228.11;128353;1087;64044;-83
2021/07/03 03:02:40;;;;;;;3.80;1.70;;;;;;;27.15;52.33;100227.27;128356;1087;64111;-83
2021/07/03 03:05:25;;;;;;;2.60;1.70;;;;;;;27.15;52.25;100232.69;128381;1087;64281;-84
2021/07/03 03:08:04;;;;;;;;;;;;;;;;;;;;;
2021/07/03 03:10:42;;;;;;;2.23;1.73;;;;;;;27.14;52.44;100241.82;128379;1087;64141;-84
2021/07/03 03:13:39;;;;;;;2.70;1.80;;;;;;;27.14;52.25;100239.98;128357;1087;64346;-83
2021/07/03 03:16:06;;;;;;;4.23;2.00;;;;;;;27.15;52.53;100240.81;128378;1086;64921;-84
2021/07/03 03:18:41;;;;;;;3.43;1.90;;;;;;;27.14;52.36;100239.98;128368;1087;64884;-84
2021/07/03 03:21:26;;;;;;;3.57;1.90;;;;;;;27.15;52.25;100246.23;128342;1087;64157;-83
2021/07/03 03:24:14;;;;;;;2.77;1.67;;;;;;;27.14;52.36;100245.39;128370;1087;64137;-83
2021/07/03 03:26:44;;;;;;;4.03;1.90;;;;;;;27.14;52.25;100248.11;128370;1085;64307;-84
2021/07/03 03:29:51;;;;;;;3.53;2.10;;;;;;;27.14;52.32;100256.23;128379;1087;64195;-83
2021/07/03 03:32:43;;;;;;;3.93;2.00;;;;;;;27.14;52.48;100266.20;128381;1087;64076;-84
2021/07/03 03:35:12;;;;;;;3.97;1.73;;;;;;;27.13;52.32;100259.95;128358;1087;64111;-84
2021/07/03 03:38:20;;;;;;;3.97;1.80;;;;;;;27.13;52.06;100268.08;128385;1087;64118;-83
2021/07/03 03:40:52;;;;;;;3.37;1.80;;;;;;;27.15;52.53;100270.62;128380;1087;64559;-84
2021/07/03 03:43:28;;;;;;;3.30;1.87;;;;;;;27.14;52.27;100282.45;128385;1086;65119;-84
2021/07/03 03:46:01;;;;;;;3.63;1.93;;;;;;;27.14;52.52;100267.07;128337;1087;64150;-84
2021/07/03 03:49:06;;;;;;;3.57;1.80;;;;;;;27.15;52.50;100274.16;128058;1086;64374;-83
2021/07/03 03:51:45;;;;;;;3.00;1.77;;;;;;;27.15;52.52;100273.33;127926;1090;64172;-83
2021/07/03 03:54:34;;;;;;;2.87;1.73;;;;;;;27.15;52.32;100270.62;127801;1090;64147;-83
2021/07/03 04:00:00;;;;;;;2.93;1.90;;;;;;;27.14;52.42;100288.74;127912;1090;64140;-84
2021/07/03 04:02:58;;;;;;;;;;;;;;;;;;;;;
2021/07/03 04:05:43;;;;;;;4.67;1.87;;;;;;;27.14;52.56;100285.17;127922;1089;64155;-83
2021/07/03 04:08:18;;;;;;;3.15;1.90;;;;;;;27.15;52.27;100290.41;127745;1090;64261;-83
2021/07/03 04:10:45;;;;;;;4.87;1.80;;;;;;;27.14;52.51;100283.33;127937;1090;64313;-85
2021/07/03 04:14:06;;;;;;;4.83;1.80;;;;;;;27.15;52.44;100289.58;127893;1090;64144;-84
2021/07/03 04:16:56;;;;;;;3.17;1.80;;;;;;;27.14;52.41;100294.16;127922;1090;64406;-83
2021/07/03 04:19:55;;;;;;;4.60;2.03;;;;;;;27.15;52.53;100295.00;127691;1092;64382;-83
2021/07/03 04:22:24;;;;;;;5.23;1.90;;;;;;;27.15;52.54;100303.97;127691;1093;64307;-84
2021/07/03 04:25:15;;;;;;;4.50;2.30;;;;;;;27.15;52.49;100305.84;127713;1093;64403;-84
2021/07/03 04:28:02;;;;;;;4.70;2.00;;;;;;;27.14;52.51;100302.29;127705;1092;64137;-83
2021/07/03 04:30:51;;;;;;;4.80;2.30;;;;;;;27.14;52.36;100305.00;127924;1088;64147;-84
2021/07/03 04:33:37;;;;;;;3.05;1.83;;;;;;;27.15;52.63;100303.13;127898;1089;64138;-84
2021/07/03 04:36:12;;;;;;;4.40;2.03;;;;;;;27.14;52.59;100307.70;127937;1088;64115;-83
2021/07/03 04:38:56;;;;;;;4.37;2.10;;;;;;;27.15;52.40;100306.67;127917;1089;64112;-84
2021/07/03 04:41:49;;;;;;;4.50;2.20;;;;;;;27.14;52.39;100304.13;127869;1089;64140;-84
2021/07/03 04:44:39;;;;;;;4.23;1.97;;;;;;;27.14;52.63;100307.70;127878;1089;64365;-84
2021/07/03 04:47:47;;;;;;;4.23;1.97;;;;;;;27.13;52.39;100306.00;127696;1093;64173;-84
2021/07/03 04:50:29;;;;;;;3.23;1.80;;;;;;;27.14;52.41;100304.13;127402;1093;64300;-85
2021/07/03 04:53:23;;;;;;;3.67;2.00;;;;;;;27.12;52.64;100301.59;127356;1092;64230;-84
2021/07/03 04:56:03;;;;;;;4.10;2.30;;;;;;;27.13;52.43;100297.88;127677;1092;64257;-83
2021/07/03 04:58:38;;;;;;;4.20;2.10;;;;;;;27.14;52.56;100307.70;127752;1090;64243;-84
2021/07/03 05:01:36;;;;;;;4.00;2.10;;;;;;;27.14;52.47;100305.00;127759;1089;64283;-84
2021/07/03 05:04:23;;;;;;;3.03;1.80;;;;;;;27.14;52.63;100304.13;127902;1089;64304;-84
2021/07/03 05:07:12;;;;;;;3.10;1.90;;;;;;;27.13;52.54;100300.58;127898;1090;64224;-84
2021/07/03 05:09:59;;;;;;;5.07;2.20;;;;;;;27.14;52.71;100305.00;127928;1088;64368;-84
2021/07/03 05:12:25;;;;;;;4.97;2.07;;;;;;;27.14;52.59;100305.00;127934;1089;64144;-84
2021/07/03 05:15:36;;;;;;;3.77;2.20;;;;;;;27.14;52.59;100307.70;127894;1090;64082;-84
2021/07/03 05:18:26;;;;;;;;;;;;;;;;;;;;;
2021/07/03 05:21:14;;;;;;;3.70;1.97;;;;;;;27.14;52.61;100315.84;127764;1090;64170;-83
2021/07/03 05:24:01;;;;;;;3.83;1.97;;;;;;;27.14;52.48;100305.00;127899;1087;64172;-85
2021/07/03 05:26:45;;;;;;;3.80;2.10;;;;;;;27.14;52.53;100315.84;128382;1085;64153;-83
2021/07/03 05:29:20;;;;;;;4.73;2.07;;;;;;;27.16;52.48;100321.92;128355;1087;64136;-84
2021/07/03 05:32:17;;;;;;;;;;;;;;;;;;;;;
2021/07/03 05:35:26;;;;;;;3.07;1.90;;;;;;;27.14;52.46;100326.67;128400;1087;63952;-84
2021/07/03 05:38:03;;;;;;;3.93;2.00;;;;;;;27.14;52.57;100320.39;127880;1088;64266;-83
2021/07/03 05:40:48;;;;;;;3.33;1.90;;;;;;;27.14;52.49;100329.38;127891;1088;64163;-84
2021/07/03 05:43:18;;;;;;;4.57;2.20;;;;;;;27.13;52.42;100327.67;127891;1090;64279;-86
2021/07/03 05:46:24;;;;;;;3.13;1.80;;;;;;;27.13;52.58;100324.97;127888;1088;64144;-84
2021/07/03 05:49:10;;;;;;;3.27;2.00;;;;;;;27.13;52.46;100330.39;127889;1090;64281;-83
2021/07/03 05:52:16;;;;;;;3.67;1.97;;;;;;;27.14;52.54;100333.94;127905;1090;64144;-83
2021/07/03 05:55:08;;;;;;;2.90;1.80;;;;;;;27.14;52.68;100333.94;127670;1090;64246;-83
2021/07/03 05:58:22;;;;;;;4.00;2.00;;;;;;;27.14;52.58;100331.22;127696;1090;63919;-84
2021/07/03 06:01:14;;;;;;;4.50;1.97;;;;;;;27.12;52.54;100336.81;127679;1090;64317;-84
2021/07/03 06:04:02;;;;;;;;;;;;;;;;;;;;;
2021/07/03 06:06:57;;;;;;;3.00;1.90;;;;;;;27.12;52.58;100344.94;127712;1090;64712;-84
2021/07/03 06:10:13;;;;;;;;;;;;;;;;;;;;;
2021/07/03 06:13:10;;;;;;;3.50;2.10;;;;;;;27.13;52.55;100353.94;127270;1093;64288;-84
2021/07/03 06:15:49;;;;;;;3.35;2.05;;;;;;;27.13;52.76;100356.64;127312;1093;64274;-83
2021/07/03 06:18:34;;;;;;;3.30;1.90;;;;;;;27.14;52.56;100350.19;127304;1093;64247;-84
2021/07/03 06:21:55;;;;;;;;;;;;;;;;;;;;;
2021/07/03 06:24:58;;;;;;;3.53;1.87;;;;;;;27.12;52.91;100342.23;127296;1096;64256;-83
2021/07/03 06:27:45;;;;;;;3.73;1.90;;;;;;;27.12;52.68;100350.35;127280;1096;64249;-84
2021/07/03 06:30:36;;;;;;;3.40;2.00;;;;;;;27.13;52.78;100367.48;127215;1096;64268;-84
2021/07/03 06:33:41;;;;;;;3.20;1.90;;;;;;;27.12;52.88;100369.31;127271;1097;64377;-84
2021/07/03 06:36:25;;;;;;;;;;;;;;;;;;;;;
2021/07/03 06:38:58;;;;;;;4.00;2.03;;;;;;;27.13;52.63;100370.19;127300;1096;64160;-84
2021/07/03 06:41:40;;;;;;;3.35;1.90;;;;;;;27.13;52.75;100381.86;127289;1097;64281;-84
2021/07/03 06:44:31;;;;;;;3.80;2.10;;;;;;;27.12;52.73;100374.73;127272;1096;64296;-83
2021/07/03 06:47:10;;;;;;;4.23;2.20;;;;;;;27.12;52.63;100368.48;127289;1096;64159;-84
2021/07/03 06:50:13;;;;;;;5.70;2.10;;;;;;;27.12;52.60;100368.48;127266;1096;64159;-84
2021/07/03 06:52:57;;;;;;;;;;;;;;;;;;;;;
2021/07/03 06:55:28;;;;;;;4.97;2.30;;;;;;;27.12;52.74;100373.91;127257;1096;64329;-84
2021/07/03 06:58:07;;;;;;;;;;;;;;;;;;;;;
2021/07/03 07:01:27;;;;;;;3.37;2.00;;;;;;;27.10;52.81;100361.36;127312;1093;64157;-84
2021/07/03 07:04:27;;;;;;;;;;;;;;;;;;;;;
2021/07/03 07:07:14;;;;;;;;;;;;;;;;;;;;;
2021/07/03 07:10:07;;;;;;;3.27;1.97;;;;;;;27.10;52.80;100353.23;127700;1091;64234;-84
2021/07/03 07:13:19;;;;;;;4.33;1.93;;;;;;;27.11;52.84;100359.48;127692;1093;64333;-83
2021/07/03 07:16:08;;;;;;;;;;;;;;;;;;;;;
2021/07/03 07:18:52;;;;;;;4.63;2.20;;;;;;;27.09;52.82;100351.52;127305;1093;64118;-84
2021/07/03 07:21:58;;;;;;;4.73;2.20;;;;;;;27.10;52.91;100342.39;127317;1093;64150;-82
2021/07/03 07:24:44;;;;;;;4.80;2.10;;;;;;;27.10;52.86;100338.84;127262;1093;64291;-84
2021/07/03 07:27:22;;;;;;;4.07;2.07;;;;;;;27.09;52.72;100340.69;127327;1092;64156;-83
2021/07/03 07:30:18;;;;;;;;;;;;;;;;;;;;;
2021/07/03 07:32:56;;;;;;;3.87;1.90;;;;;;;27.09;52.89;100348.81;127312;1093;64160;-84
2021/07/03 07:35:25;;;;;;;4.98;2.25;;;;;;;27.08;52.74;100357.94;127281;1093;64253;-83
2021/07/03 07:38:01;;;;;;;;;;;;;;;27.08;52.88;100348.98;127341;1093;61758;-84
2021/07/03 07:40:37;;;;;;;;;;;;;;;;;;;;;
2021/07/03 07:43:06;;;;;;;4.00;2.10;;;;;;;27.08;52.91;100357.94;127291;1093;64159;-84
2021/07/03 07:45:56;;;;;;;3.50;2.10;;;;;;;27.08;52.82;100360.66;127292;1093;64154;-84
2021/07/03 07:48:33;;;;;;;3.97;1.97;;;;;;;27.08;52.95;100354.39;127340;1093;64285;-84
2021/07/03 07:51:32;;;;;;;4.30;2.20;;;;;;;27.09;52.74;100362.36;127329;1093;64116;-84
2021/07/03 07:54:13;;;;;;;3.67;2.00;;;;;;;27.09;52.82;100345.27;127656;1092;64802;-84
2021/07/03 07:56:59;;;;;;;4.00;2.00;;;;;;;27.09;52.76;100356.94;127689;1093;64304;-83
2021/07/03 07:59:34;;;;;;;4.83;1.90;;;;;;;27.10;52.91;100353.23;127713;1092;64156;-83
2021/07/03 08:02:20;;;;;;;3.40;2.10;;;;;;;27.11;52.73;100345.94;127696;1092;64303;-84
2021/07/03 08:05:01;;;;;;;3.53;2.03;;;;;;;27.11;52.73;100348.65;127697;1092;64156;-84
2021/07/03 08:07:39;;;;;;;5.30;2.17;;;;;;;27.13;52.95;100349.35;127664;1093;64261;-84
2021/07/03 08:10:30;;;;;;;4.17;2.20;;;;;;;27.13;52.64;100343.94;127745;1093;64147;-85
2021/07/03 08:13:36;;;;;;;;;;;;;;;27.13;53.03;100346.64;127735;1093;64118;-83
2021/07/03 08:16:12;;;;;;;4.47;1.97;;;;;;;27.14;52.82;100347.48;127718;1092;63343;-84
2021/07/03 08:18:58;;;;;;;2.80;1.90;;;;;;;27.14;52.77;100334.80;127690;1093;64403;-83
2021/07/03 08:21:24;;;;;;;4.73;2.00;;;;;;;27.15;52.74;100332.93;127719;1093;64322;-83
2021/07/03 08:23:52;;;;;;;3.60;2.10;;;;;;;27.17;52.60;100333.63;127688;1092;64089;-84
2021/07/03 08:26:44;;;;;;;3.80;2.10;;;;;;;27.16;52.66;100324.64;127647;1092;64150;-84
2021/07/03 08:29:25;;;;;;;4.27;2.10;;;;;;;27.18;52.68;100324.47;127683;1093;64230;-84
2021/07/03 08:32:14;;;;;;;4.27;2.13;;;;;;;27.19;52.70;100321.63;127698;1093;64125;-83
2021/07/03 08:34:59;;;;;;;;;;;;;;;;;;;;;
2021/07/03 08:37:40;;;;;;;4.77;2.20;;;;;;;27.20;52.72;100319.75;127913;1090;64144;-83
2021/07/03 08:40:33;;;;;;;3.83;1.90;;;;;;;27.21;52.63;100316.88;127920;1090;64848;-83
2021/07/03 08:43:24;;;;;;;4.27;1.93;;;;;;;27.21;52.40;100308.75;127722;1090;64175;-83
2021/07/03 08:46:18;;;;;;;3.50;1.80;;;;;;;27.23;52.58;100314.00;127709;1090;64443;-84
2021/07/03 08:49:05;;;;;;;3.20;2.10;;;;;;;27.24;52.66;100321.96;127271;1093;64159;-83
2021/07/03 08:51:37;;;;;;;4.07;2.17;;;;;;;27.24;52.39;100321.13;127263;1093;64551;-84
2021/07/03 08:54:31;;;;;;;3.60;1.90;;;;;;;27.24;52.54;100327.38;127300;1094;64115;-85
2021/07/03 08:57:21;;;;;;;4.20;2.00;;;;;;;27.25;52.51;100325.54;127266;1093;64368;-84
2021/07/03 09:00:48;;;;;;;2.63;1.80;;;;;;;27.25;52.33;100339.09;127196;1097;64264;-84
2021/07/03 09:03:42;;;;;;;2.87;1.83;;;;;;;27.25;52.56;100336.38;126348;1100;64275;-84
2021/07/03 09:06:42;;;;;;;3.35;1.80;;;;;;;27.24;52.34;100337.38;126392;1100;64425;-84
2021/07/03 09:09:13;;;;;;;2.97;1.80;;;;;;;27.24;52.27;100331.97;127020;1100;65025;-83
2021/07/03 09:12:12;;;;;;;3.73;1.90;;;;;;;27.24;52.37;100332.80;127130;1100;64131;-84
2021/07/03 09:15:20;;;;;;;3.10;1.95;;;;;;;27.24;52.47;100324.67;127162;1098;64461;-84
2021/07/03 09:18:18;;;;;;;;;;;;;;;;;;;;;
2021/07/03 09:21:18;;;;;;;3.80;1.90;;;;;;;27.26;52.57;100327.25;127242;1095;64159;-83
2021/07/03 09:24:14;;;;;;;3.33;1.90;;;;;;;27.25;52.42;100326.38;127163;1096;64156;-84
2021/07/03 09:27:12;;;;;;;3.03;1.80;;;;;;;27.26;52.28;100329.95;127096;1100;64284;-84
2021/07/03 09:30:19;;;;;;;;;;;;;;;;;;;;;
2021/07/03 09:33:20;;;;;;;3.60;2.10;;;;;;;27.28;52.27;100329.79;127155;1100;64121;-84
2021/07/03 09:36:13;;;;;;;3.23;1.90;;;;;;;27.27;52.26;100320.79;127149;1100;64157;-84
2021/07/03 09:39:29;;;;;;;2.80;1.80;;;;;;;27.28;52.49;100317.08;126340;1099;64174;-85
2021/07/03 09:42:32;;;;;;;3.37;1.77;;;;;;;27.29;52.44;100320.63;127178;1095;64264;-84
2021/07/03 09:45:21;;;;;;;3.50;2.10;;;;;;;27.28;52.65;100319.78;127113;1095;64047;-84
2021/07/03 09:48:08;;;;;;;5.00;2.10;;;;;;;27.29;52.44;100320.63;127158;1100;64214;-84
2021/07/03 09:50:56;;;;;;;;;;;;;;;;;;;;;
2021/07/03 09:54:06;;;;;;;;;;;;;;;;;;;;;
2021/07/03 09:56:47;;;;;;;3.00;1.80;;;;;;;27.30;52.36;100303.36;127193;1094;64125;-83
2021/07/03 09:59:23;;;;;;;2.90;1.70;;;;;;;27.31;52.29;100308.61;127178;1096;64310;-84
2021/07/03 10:02:16;;;;;;;3.73;1.97;;;;;;;27.31;52.13;100299.64;127151;1096;64755;-84
2021/07/03 10:04:54;;;;;;;4.05;1.78;;;;;;;27.30;52.30;100287.97;127246;1096;64738;-83
2021/07/03 10:07:39;;;;;;;3.18;2.03;;;;;;;27.30;52.12;100279.84;127268;1093;64587;-83
2021/07/03 10:10:37;;;;;;;2.83;1.70;;;;;;;27.31;52.21;100286.09;127244;1093;64116;-84
2021/07/03 10:13:29;;;;;;;3.60;1.93;;;;;;;27.30;52.05;100287.09;127291;1093;64303;-83
2021/07/03 10:16:08;;;;;;;3.40;2.07;;;;;;;27.30;52.20;100277.13;127475;1093;64469;-83
2021/07/03 10:19:23;;;;;;;4.07;1.97;;;;;;;27.31;52.24;100276.09;127732;1090;64246;-83
2021/07/03 10:22:20;;;;;;;3.97;1.90;;;;;;;27.30;51.93;100276.27;127911;1089;64158;-84
2021/07/03 10:25:07;;;;;;;;;;;;;;;;;;;;;
2021/07/03 10:27:45;;;;;;;4.27;1.90;;;;;;;27.30;52.15;100279.84;127809;1089;64038;-84
2021/07/03 10:30:47;;;;;;;3.18;1.90;;;;;;;27.31;51.90;100286.09;127754;1090;64031;-83
2021/07/03 10:33:39;;;;;;;;;;;;;;;;;;;;;
2021/07/03 10:36:57;;;;;;;3.60;1.90;;;;;;;27.31;51.95;100286.94;127706;1093;64202;-84
2021/07/03 10:39:45;;;;;;;4.17;2.00;;;;;;;27.31;52.13;100281.52;127289;1093;64121;-83
2021/07/03 10:42:26;;;;;;;3.37;1.97;;;;;;;27.32;52.07;100279.67;127279;1093;64243;-83
2021/07/03 10:45:26;;;;;;;2.73;1.70;;;;;;;27.30;52.10;100269.00;127251;1093;64467;-83
2021/07/03 10:48:14;;;;;;;3.05;1.50;;;;;;;27.31;51.72;100270.67;127154;1096;64188;-83
2021/07/03 10:50:42;;;;;;;2.90;1.80;;;;;;;27.31;52.15;100267.96;127195;1096;64936;-83
2021/07/03 10:53:34;;;;;;;2.57;1.70;;;;;;;27.31;52.07;100276.09;127203;1096;64166;-84
2021/07/03 10:56:14;;;;;;;4.10;2.00;;;;;;;27.32;51.92;100274.25;127146;1100;64240;-84
2021/07/03 10:58:43;;;;;;;2.80;1.77;;;;;;;27.31;51.89;100269.84;127164;1096;64163;-84
2021/07/03 11:01:28;;;;;;;3.67;1.80;;;;;;;27.31;51.90;100275.25;127176;1094;64320;-84
2021/07/03 11:04:16;;;;;;;2.90;1.80;;;;;;;27.31;51.98;100269.84;127185;1096;65032;-84
2021/07/03 11:06:53;;;;;;;4.53;1.83;;;;;;;27.30;51.90;100270.84;127179;1095;64202;-84
2021/07/03 11:09:30;;;;;;;3.33;1.93;;;;;;;27.30;51.83;100266.29;127192;1096;64240;-84
2021/07/03 11:12:21;;;;;;;2.60;1.70;;;;;;;27.29;51.83;100264.59;127311;1093;64285;-84
2021/07/03 11:15:12;;;;;;;3.10;1.70;;;;;;;27.30;51.90;100260.00;127285;1093;64613;-84
2021/07/03 11:17:47;;;;;;;3.83;2.00;;;;;;;27.31;51.85;100256.28;127193;1093;64250;-83
2021/07/03 11:20:29;;;;;;;3.77;2.00;;;;;;;27.31;51.77;100264.42;127212;1095;64330;-81
2021/07/03 11:22:57;;;;;;;3.33;2.00;;;;;;;27.31;51.87;100261.70;127146;1093;64288;-81
2021/07/03 11:25:42;;;;;;;2.87;1.77;;;;;;;27.31;52.04;100264.42;127313;1092;64796;-81
2021/07/03 11:28:14;;;;;;;3.43;1.90;;;;;;;27.31;51.95;100259.83;127483;1092;64200;-81
2021/07/03 11:31:04;;;;;;;3.57;1.90;;;;;;;27.31;52.03;100256.28;127493;1091;64488;-83
2021/07/03 11:33:33;;;;;;;3.57;2.10;;;;;;;27.32;51.91;100249.86;127516;1093;64188;-81
2021/07/03 11:36:00;;;;;;;3.33;1.73;;;;;;;27.31;51.98;100248.99;127579;1093;64128;-81
2021/07/03 11:38:27;;;;;;;4.13;2.07;;;;;;;27.33;51.78;100259.70;127561;1093;64175;-83
2021/07/03 11:41:07;;;;;;;3.30;1.80;;;;;;;27.31;52.03;100251.70;127633;1092;64170;-83
2021/07/03 11:43:47;;;;;;;;;;;;;;;;;;;;;
2021/07/03 11:46:14;;;;;;;2.33;1.60;;;;;;;27.31;51.93;100262.55;127566;1091;64131;-84
2021/07/03 11:48:56;;;;;;;3.27;2.10;;;;;;;27.31;51.98;100267.96;127665;1093;64110;-84
2021/07/03 11:51:22;;;;;;;3.30;1.87;;;;;;;27.31;51.94;100267.13;127717;1090;64482;-84
2021/07/03 11:53:54;;;;;;;2.87;1.70;;;;;;;27.31;51.89;100264.42;127697;1093;64224;-84
2021/07/03 11:56:32;;;;;;;5.13;2.03;;;;;;;27.30;51.80;100265.42;127713;1090;64243;-83
2021/07/03 11:59:02;;;;;;;3.57;1.90;;;;;;;27.29;51.77;100270.00;127924;1090;64249;-84
2021/07/03 12:01:45;;;;;;;3.43;1.85;;;;;;;27.29;51.90;100266.42;127902;1090;64192;-84
2021/07/03 12:04:17;;;;;;;3.60;1.97;;;;;;;27.27;51.84;100261.17;128075;1087;64402;-84
2021/07/03 12:06:49;;;;;;;3.60;1.97;;;;;;;27.28;51.88;100262.05;128384;1087;64137;-84
2021/07/03 12:09:24;;;;;;;3.33;1.90;;;;;;;27.26;51.79;100257.63;128368;1087;64111;-84
2021/07/03 12:12:17;;;;;;;3.10;1.97;;;;;;;27.26;51.82;100267.63;128392;1086;64237;-84
2021/07/03 12:14:45;;;;;;;2.40;1.70;;;;;;;27.25;51.71;100260.50;128056;1087;64115;-82
2021/07/03 12:17:21;;;;;;;3.33;1.90;;;;;;;27.24;51.80;100256.93;128052;1087;64106;-83
2021/07/03 12:19:55;;;;;;;3.17;2.10;;;;;;;27.24;51.75;100250.67;128387;1086;64131;-84
2021/07/03 12:22:24;;;;;;;2.60;1.90;;;;;;;27.24;51.82;100245.25;128377;1086;64106;-84
2021/07/03 12:24:54;;;;;;;3.53;1.90;;;;;;;27.22;51.83;100241.84;128388;1086;64138;-84
2021/07/03 12:27:44;;;;;;;2.93;1.80;;;;;;;27.22;51.86;100233.72;128376;1087;64125;-83
2021/07/03 12:30:14;;;;;;;3.93;1.93;;;;;;;27.22;52.02;100231.01;128293;1087;64214;-83
2021/07/03 12:32:48;;;;;;;3.17;2.00;;;;;;;27.21;51.96;100241.01;128374;1087;64096;-83
2021/07/03 12:35:43;;;;;;;3.40;2.00;;;;;;;27.21;51.79;100234.75;128377;1087;64250;-84
2021/07/03 12:38:25;;;;;;;3.20;2.03;;;;;;;27.19;51.69;100234.92;128357;1087;64137;-83
2021/07/03 12:40:59;;;;;;;2.53;1.57;;;;;;;27.20;51.89;100230.34;128387;1087;64561;-84
2021/07/03 12:43:56;;;;;;;2.90;1.80;;;;;;;27.20;51.78;100228.47;128376;1086;64150;-84
2021/07/03 12:46:33;;;;;;;3.50;1.87;;;;;;;27.18;51.78;100214.25;128352;1085;64310;-83
2021/07/03 12:49:40;;;;;;;3.85;1.95;;;;;;;27.18;51.88;100211.55;128383;1085;64137;-83
2021/07/03 12:52:43;;;;;;;2.97;1.80;;;;;;;27.18;51.88;100207.96;128327;1085;64137;-85
2021/07/03 12:55:25;;;;;;;4.20;2.10;;;;;;;27.18;51.75;100206.13;128325;1087;64133;-83
2021/07/03 12:57:56;;;;;;;3.13;1.93;;;;;;;27.19;51.69;100204.25;128328;1087;64134;-84
2021/07/03 13:00:32;;;;;;;4.03;1.90;;;;;;;27.18;51.69;100195.28;128365;1086;64211;-83
2021/07/03 13:03:15;;;;;;;3.20;2.10;;;;;;;27.18;51.74;100198.00;128378;1087;64096;-83
2021/07/03 13:06:08;;;;;;;3.07;2.00;;;;;;;27.19;51.78;100196.13;128362;1086;64134;-83
2021/07/03 13:08:45;;;;;;;3.03;2.07;;;;;;;27.18;51.79;100198.00;128380;1087;64259;-83
2021/07/03 13:11:27;;;;;;;;;;;;;;;;;;;;;
2021/07/03 13:14:04;;;;;;;3.10;1.80;;;;;;;27.19;51.67;100182.58;128377;1087;64144;-84
2021/07/03 13:16:58;;;;;;;3.27;2.10;;;;;;;27.18;51.62;100187.16;128362;1087;64294;-83
2021/07/03 13:20:08;;;;;;;3.73;2.10;;;;;;;27.19;51.80;100185.28;127947;1087;64271;-83
2021/07/03 13:23:17;;;;;;;;;;;;;;;;;;;;;
2021/07/03 13:26:08;;;;;;;4.33;2.20;;;;;;;27.19;51.47;100180.73;127708;1090;64151;-84
2021/07/03 13:29:23;;;;;;;4.03;2.17;;;;;;;27.20;51.64;100190.53;127640;1090;64315;-83
2021/07/03 13:32:26;;;;;;;2.90;1.87;;;;;;;27.21;51.68;100180.56;127705;1090;64391;-85
2021/07/03 13:35:06;;;;;;;2.50;1.90;;;;;;;27.22;51.87;100179.52;127286;1093;64214;-83
2021/07/03 13:37:53;;;;;;;3.40;2.17;;;;;;;27.22;51.58;100172.27;127290;1093;64227;-84
2021/07/03 13:40:48;;;;;;;3.50;2.10;;;;;;;27.23;51.61;100173.09;127278;1093;64278;-84
2021/07/03 13:43:25;;;;;;;3.50;2.25;;;;;;;27.23;51.75;100178.52;127323;1093;64165;-85